Time;durP1;ratioP1;P1;durP2;ratioP2;P2;SDS_P1;SDS_P2;PMS_P1;PMS_P2;Temp;Humidity;BMP_temperature;BMP_pressure;BME280_temperature;BME280_humidity;BME280_pressure;Samples;Min_cycle;Max_cycle;Signal;HPM_P1;HPM_P2
2022/11/11 00:00:27;;;;;;;5.00;2.28;;;21.30;58.60;;;;;;5024393;28;20489;-66
2022/11/11 00:02:57;;;;;;;3.80;2.53;;;21.30;58.50;;;;;;5042834;28;20140;-64
2022/11/11 00:05:24;;;;;;;3.42;2.35;;;21.30;58.50;;;;;;5038962;28;20050;-63
2022/11/11 00:07:52;;;;;;;3.53;2.42;;;21.30;58.60;;;;;;5043078;28;20158;-64
2022/11/11 00:10:18;;;;;;;3.45;2.33;;;21.30;58.50;;;;;;5022111;28;20029;-64
2022/11/11 00:12:44;;;;;;;3.60;2.50;;;21.30;58.50;;;;;;5041332;28;20171;-63
2022/11/11 00:15:09;;;;;;;3.70;2.33;;;21.30;58.60;;;;;;5032857;28;20109;-65
2022/11/11 00:25:52;;;;;;;5.40;2.70;;;21.20;58.50;;;;;;5035557;28;20031;-63
2022/11/11 00:28:18;;;;;;;3.42;2.28;;;21.20;58.50;;;;;;5037262;28;20029;-64
2022/11/11 00:30:44;;;;;;;3.67;2.30;;;21.20;58.50;;;;;;5039026;28;20533;-63
2022/11/11 00:33:09;;;;;;;3.67;2.30;;;21.20;58.60;;;;;;5034841;28;20036;-65
2022/11/11 00:35:53;;;;;;;3.50;2.15;;;21.20;58.50;;;;;;5032961;28;20452;-64
2022/11/11 00:41:03;;;;;;;3.78;2.70;;;21.20;58.50;;;;;;5046352;28;20102;-64
2022/11/11 00:43:29;;;;;;;3.40;2.30;;;21.20;58.50;;;;;;5040611;28;20060;-64
2022/11/11 00:50:57;;;;;;;3.90;2.28;;;21.20;58.60;;;;;;5039268;28;20049;-64
2022/11/11 00:51:25;;;;;;;3.10;2.28;;;21.20;58.60;;;;;;5031858;28;20032;-65
2022/11/11 00:53:51;;;;;;;4.07;2.40;;;21.20;58.50;;;;;;5023392;28;20029;-64
2022/11/11 00:56:17;;;;;;;3.42;2.33;;;21.20;58.60;;;;;;5033971;28;20104;-64
2022/11/11 00:58:42;;;;;;;3.72;2.58;;;21.20;58.50;;;;;;5040179;28;20426;-63
2022/11/11 01:01:08;;;;;;;3.38;2.20;;;21.10;58.50;;;;;;5039983;28;20476;-65
2022/11/11 01:03:33;;;;;;;3.50;2.10;;;21.20;58.60;;;;;;5036298;28;20029;-63
2022/11/11 01:06:00;;;;;;;3.47;2.10;;;21.20;58.60;;;;;;5040839;28;20029;-63
2022/11/11 01:08:26;;;;;;;3.25;2.00;;;21.10;58.50;;;;;;5033335;28;20164;-64
2022/11/11 01:10:51;;;;;;;3.40;2.30;;;21.10;58.50;;;;;;5036703;28;20447;-64
2022/11/11 01:13:22;;;;;;;3.80;2.33;;;21.10;58.50;;;;;;5034648;28;20115;-65
2022/11/11 01:15:50;;;;;;;4.05;2.28;;;21.10;58.50;;;;;;5028426;28;20108;-64
2022/11/11 01:18:19;;;;;;;4.25;2.13;;;21.10;58.50;;;;;;5040456;28;20033;-64
2022/11/11 01:20:45;;;;;;;3.25;2.20;;;21.10;59.00;;;;;;5037544;28;20024;-64
2022/11/11 01:23:12;;;;;;;3.42;2.28;;;21.10;59.00;;;;;;5036840;28;20040;-65
2022/11/11 01:25:40;;;;;;;3.40;2.10;;;21.10;58.50;;;;;;5037092;28;20473;-65
2022/11/11 01:28:07;;;;;;;3.67;2.28;;;21.10;58.50;;;;;;5032507;28;20037;-65
2022/11/11 01:30:34;;;;;;;3.13;2.10;;;21.10;58.50;;;;;;5028797;28;20056;-64
2022/11/11 01:33:01;;;;;;;2.50;1.90;;;21.10;59.00;;;;;;5034232;28;20087;-65
2022/11/11 01:35:28;;;;;;;3.63;2.20;;;21.10;58.50;;;;;;5033368;28;20098;-64
2022/11/11 01:37:55;;;;;;;3.50;2.08;;;21.10;58.50;;;;;;5040760;28;20033;-64
2022/11/11 01:40:20;;;;;;;3.00;2.00;;;21.10;58.50;;;;;;5041288;28;20460;-65
2022/11/11 01:42:48;;;;;;;3.33;2.10;;;21.10;58.60;;;;;;5038836;28;20031;-64
2022/11/11 01:45:46;;;;;;;2.95;2.00;;;21.10;58.50;;;;;;5035912;28;20017;-64
2022/11/11 01:51:34;;;;;;;3.50;2.10;;;21.10;58.50;;;;;;5032762;28;20120;-65
2022/11/11 01:54:31;;;;;;;3.83;2.00;;;21.00;58.50;;;;;;5034070;28;20499;-65
2022/11/11 01:57:03;;;;;;;3.20;2.10;;;21.00;58.50;;;;;;5019753;28;20497;-65
2022/11/11 01:59:30;;;;;;;2.83;1.90;;;21.00;58.50;;;;;;5032617;28;20396;-65
2022/11/11 02:01:56;;;;;;;3.17;2.05;;;21.00;58.50;;;;;;5033790;28;20030;-65
2022/11/11 02:07:08;;;;;;;2.90;2.00;;;21.00;58.50;;;;;;5028953;28;20045;-65
2022/11/11 02:09:37;;;;;;;2.80;1.83;;;21.00;58.50;;;;;;5035661;28;20025;-65
2022/11/11 02:14:54;;;;;;;2.83;2.05;;;21.00;58.50;;;;;;5041016;28;20075;-64
2022/11/11 02:17:20;;;;;;;3.22;2.00;;;21.00;58.50;;;;;;5044292;28;20037;-63
2022/11/11 02:20:03;;;;;;;2.78;1.80;;;21.00;58.50;;;;;;5034824;28;20780;-64
2022/11/11 02:22:47;;;;;;;3.60;1.90;;;21.00;58.50;;;;;;5036256;28;20083;-62
2022/11/11 02:25:17;;;;;;;3.13;2.08;;;21.00;58.50;;;;;;5037445;28;20484;-63
2022/11/11 02:27:48;;;;;;;3.08;1.98;;;21.00;58.50;;;;;;5034914;28;20088;-63
2022/11/11 02:30:15;;;;;;;2.78;1.90;;;21.00;58.50;;;;;;5033880;28;20034;-64
2022/11/11 02:32:43;;;;;;;2.67;1.83;;;21.00;58.50;;;;;;5030166;28;20053;-63
2022/11/11 02:35:14;;;;;;;2.80;1.83;;;21.00;58.50;;;;;;5039381;28;20024;-63
2022/11/11 02:37:43;;;;;;;4.30;2.05;;;21.00;58.50;;;;;;5028388;28;20476;-64
2022/11/11 02:40:13;;;;;;;2.80;1.88;;;20.90;58.40;;;;;;5032109;28;20091;-63
2022/11/11 02:42:38;;;;;;;3.63;2.20;;;21.00;58.50;;;;;;5032633;28;20033;-63
2022/11/11 02:45:04;;;;;;;3.30;1.95;;;20.90;58.40;;;;;;5035415;28;20895;-63
2022/11/11 02:47:30;;;;;;;2.88;1.80;;;20.90;58.40;;;;;;5034835;28;20433;-64
2022/11/11 02:49:55;;;;;;;3.20;2.05;;;20.90;58.40;;;;;;5032230;28;20034;-64
2022/11/11 02:52:21;;;;;;;2.88;1.63;;;20.90;58.40;;;;;;5035209;28;20028;-64
2022/11/11 02:54:48;;;;;;;3.25;2.10;;;20.90;58.40;;;;;;5024123;28;20029;-65
2022/11/11 02:57:14;;;;;;;2.67;1.73;;;20.90;58.40;;;;;;5029564;28;20026;-63
2022/11/11 02:59:40;;;;;;;2.70;1.83;;;20.90;58.40;;;;;;5034567;28;20025;-65
2022/11/11 03:02:07;;;;;;;2.63;1.70;;;20.90;58.40;;;;;;5036447;28;20120;-63
2022/11/11 03:04:33;;;;;;;3.10;1.90;;;20.90;58.40;;;;;;5031854;28;20021;-63
2022/11/11 03:06:59;;;;;;;3.05;2.03;;;20.90;58.40;;;;;;5033923;28;20108;-63
2022/11/11 03:09:25;;;;;;;2.80;1.70;;;20.90;58.40;;;;;;5036407;28;20108;-64
2022/11/11 03:11:50;;;;;;;2.80;1.77;;;20.90;58.40;;;;;;5034657;28;20037;-63
2022/11/11 03:14:16;;;;;;;2.65;1.70;;;20.90;58.40;;;;;;5030666;28;20029;-63
2022/11/11 03:19:26;;;;;;;2.50;1.50;;;20.90;58.40;;;;;;5032388;28;20033;-64
2022/11/11 03:21:52;;;;;;;2.33;1.73;;;20.90;58.40;;;;;;5036307;28;20022;-64
2022/11/11 03:24:17;;;;;;;2.15;1.60;;;20.90;58.40;;;;;;5036486;28;20104;-63
2022/11/11 03:26:43;;;;;;;2.65;1.85;;;20.90;58.40;;;;;;5036428;28;20342;-65
2022/11/11 03:29:08;;;;;;;2.83;2.00;;;20.80;58.30;;;;;;5038163;28;20028;-62
2022/11/11 03:31:34;;;;;;;2.63;1.75;;;20.80;58.30;;;;;;5037886;28;20040;-63
2022/11/11 03:34:16;;;;;;;2.38;1.63;;;20.80;58.30;;;;;;5030235;28;20065;-65
2022/11/11 03:39:27;;;;;;;2.88;1.85;;;20.80;58.30;;;;;;5035160;28;20147;-65
2022/11/11 03:41:53;;;;;;;2.13;1.55;;;20.80;58.30;;;;;;5031081;28;20596;-63
2022/11/11 03:44:19;;;;;;;2.33;1.70;;;20.80;58.30;;;;;;5034119;28;20097;-65
2022/11/11 03:46:44;;;;;;;2.78;1.80;;;20.80;58.30;;;;;;5035296;28;20039;-65
2022/11/11 03:49:10;;;;;;;2.10;1.45;;;20.80;58.30;;;;;;5031598;28;20140;-64
2022/11/11 03:51:36;;;;;;;2.83;1.70;;;20.80;58.30;;;;;;5028578;28;20032;-64
2022/11/11 03:54:01;;;;;;;2.38;1.60;;;20.80;58.30;;;;;;5032955;28;20052;-64
2022/11/11 03:56:27;;;;;;;2.28;1.52;;;20.80;58.30;;;;;;5028325;28;20022;-63
2022/11/11 03:58:52;;;;;;;2.50;1.70;;;20.80;58.30;;;;;;5041660;28;20071;-65
2022/11/11 04:12:15;;;;;;;2.30;1.50;;;20.80;58.30;;;;;;5031796;28;20056;-63
2022/11/11 04:17:24;;;;;;;2.50;1.60;;;20.80;58.30;;;;;;5039120;28;20094;-63
2022/11/11 04:22:40;;;;;;;2.60;1.60;;;20.80;58.30;;;;;;5039216;28;20097;-65
2022/11/11 04:29:27;;;;;;;2.72;1.77;;;20.80;58.30;;;;;;5032058;28;20111;-64
2022/11/11 04:30:36;;;;;;;2.75;1.70;;;20.70;58.20;;;;;;5035093;28;20092;-63
2022/11/11 04:33:01;;;;;;;2.42;1.70;;;20.70;58.20;;;;;;5032432;28;20033;-64
2022/11/11 04:35:27;;;;;;;2.60;1.40;;;20.70;58.20;;;;;;5034850;28;20524;-64
2022/11/11 04:41:02;;;;;;;2.30;1.48;;;20.70;58.20;;;;;;5041819;28;20094;-65
2022/11/11 04:43:22;;;;;;;2.08;1.38;;;20.70;58.30;;;;;;5035652;28;20033;-64
2022/11/11 04:45:47;;;;;;;2.17;1.45;;;20.70;58.30;;;;;;5033356;28;20033;-63
2022/11/11 04:48:15;;;;;;;2.22;1.58;;;20.70;58.30;;;;;;5030612;28;20029;-65
2022/11/11 04:50:43;;;;;;;2.50;1.80;;;20.70;58.30;;;;;;5031836;28;20030;-64
2022/11/11 04:53:14;;;;;;;2.50;1.60;;;20.70;58.30;;;;;;5033554;28;20089;-64
2022/11/11 04:58:31;;;;;;;2.78;1.70;;;20.70;58.40;;;;;;5042186;28;20036;-63
2022/11/11 05:00:58;;;;;;;1.98;1.40;;;20.60;58.40;;;;;;5038856;28;20485;-64
2022/11/11 05:03:23;;;;;;;2.72;1.73;;;20.60;58.40;;;;;;5032876;28;20430;-64
2022/11/11 05:08:57;;;;;;;2.25;1.60;;;20.70;58.50;;;;;;5031671;28;20044;-64
2022/11/11 05:11:32;;;;;;;3.00;1.80;;;20.70;58.60;;;;;;5035668;28;20024;-65
2022/11/11 05:22:22;;;;;;;2.40;1.50;;;20.60;58.70;;;;;;5031381;28;20099;-64
2022/11/11 05:27:32;;;;;;;2.53;1.58;;;20.60;58.70;;;;;;5034622;28;20601;-63
2022/11/11 05:29:58;;;;;;;2.63;1.80;;;20.60;58.70;;;;;;5034391;28;20155;-64
2022/11/11 05:32:24;;;;;;;2.00;1.50;;;20.60;58.70;;;;;;5033459;28;20037;-64
2022/11/11 05:34:50;;;;;;;2.13;1.50;;;20.60;58.70;;;;;;5045630;28;20472;-65
2022/11/11 05:37:17;;;;;;;1.98;1.40;;;20.60;58.80;;;;;;5021089;28;20079;-64
2022/11/11 05:39:43;;;;;;;2.60;1.63;;;20.60;58.80;;;;;;5034938;28;20036;-63
2022/11/11 05:42:09;;;;;;;2.40;1.60;;;20.60;58.80;;;;;;5039952;28;20055;-64
2022/11/11 05:44:35;;;;;;;2.67;1.67;;;20.60;58.80;;;;;;5034962;28;20033;-65
2022/11/11 05:47:01;;;;;;;2.40;1.60;;;20.60;58.80;;;;;;5036274;28;20155;-64
2022/11/11 05:49:27;;;;;;;2.58;1.70;;;20.60;58.80;;;;;;5030778;28;20030;-65
2022/11/11 05:51:54;;;;;;;2.20;1.40;;;20.60;58.80;;;;;;5034094;28;20103;-65
2022/11/11 05:54:20;;;;;;;2.38;1.50;;;20.60;58.80;;;;;;5038558;28;20026;-63
2022/11/11 05:56:46;;;;;;;2.50;1.70;;;20.60;58.80;;;;;;5033390;28;20133;-63
2022/11/11 05:59:12;;;;;;;2.30;1.60;;;20.60;58.80;;;;;;5032811;28;20117;-63
2022/11/11 06:01:38;;;;;;;2.53;1.70;;;20.60;58.80;;;;;;5033964;28;20088;-64
2022/11/11 06:04:04;;;;;;;2.20;1.50;;;20.60;58.80;;;;;;5037409;28;20387;-65
2022/11/11 06:06:31;;;;;;;2.38;1.63;;;20.60;58.80;;;;;;5023455;28;20026;-64
2022/11/11 06:08:57;;;;;;;2.88;1.60;;;20.60;58.80;;;;;;5033322;28;20429;-66
2022/11/11 06:11:23;;;;;;;2.60;1.50;;;20.60;58.90;;;;;;5038543;28;20064;-63
2022/11/11 06:13:49;;;;;;;2.35;1.52;;;20.50;58.80;;;;;;5039920;28;20021;-63
2022/11/11 06:16:15;;;;;;;2.17;1.40;;;20.60;59.70;;;;;;5034342;28;20037;-64
2022/11/11 06:18:41;;;;;;;2.30;1.55;;;20.70;59.50;;;;;;5033760;28;20033;-64
2022/11/11 06:21:07;;;;;;;2.00;1.30;;;20.80;59.30;;;;;;5035831;28;20025;-63
2022/11/11 06:23:32;;;;;;;2.25;1.40;;;20.90;59.10;;;;;;5032967;28;20035;-63
2022/11/11 06:26:14;;;;;;;2.33;1.55;;;21.00;59.10;;;;;;5032596;28;20036;-63
2022/11/11 06:28:53;;;;;;;2.20;1.30;;;21.10;58.90;;;;;;5031315;28;20773;-65
2022/11/11 06:31:24;;;;;;;2.90;1.70;;;21.30;58.50;;;;;;5033177;28;20041;-64
2022/11/11 06:33:50;;;;;;;2.80;1.73;;;21.40;58.10;;;;;;5027409;28;20021;-63
2022/11/11 06:36:18;;;;;;;2.40;1.55;;;21.60;57.80;;;;;;5028718;28;20037;-63
2022/11/11 06:38:43;;;;;;;2.25;1.40;;;21.70;57.40;;;;;;5035175;28;20037;-64
2022/11/11 06:41:14;;;;;;;3.08;1.73;;;21.80;57.20;;;;;;5033942;28;20146;-64
2022/11/11 06:43:40;;;;;;;1.60;1.20;;;21.90;56.80;;;;;;5035017;28;20027;-63
2022/11/11 06:46:12;;;;;;;2.60;1.50;;;22.00;56.90;;;;;;5034217;28;20108;-65
2022/11/11 06:48:41;;;;;;;2.38;1.73;;;22.10;56.60;;;;;;5035908;28;20033;-63
2022/11/11 06:51:06;;;;;;;2.50;1.50;;;22.20;56.40;;;;;;5039068;28;20040;-64
2022/11/11 06:53:32;;;;;;;2.85;1.60;;;22.30;56.10;;;;;;5034156;28;20036;-64
2022/11/11 06:55:58;;;;;;;2.30;1.50;;;22.40;55.90;;;;;;5029674;28;20036;-65
2022/11/11 06:58:24;;;;;;;2.60;1.80;;;22.50;55.70;;;;;;5034915;28;20025;-64
2022/11/11 07:00:50;;;;;;;2.45;1.65;;;22.60;55.70;;;;;;5029013;28;20025;-64
2022/11/11 07:03:18;;;;;;;2.58;1.60;;;22.70;55.60;;;;;;5034947;28;20354;-64
2022/11/11 07:05:44;;;;;;;2.28;1.60;;;22.70;55.30;;;;;;5033636;28;20034;-64
2022/11/11 07:08:14;;;;;;;2.92;1.67;;;22.80;55.10;;;;;;5025166;28;20065;-64
2022/11/11 07:10:44;;;;;;;1.92;1.40;;;22.90;54.90;;;;;;5028693;28;20424;-65
2022/11/11 07:13:10;;;;;;;3.17;1.75;;;23.00;55.10;;;;;;5030459;28;20026;-65
2022/11/11 07:15:36;;;;;;;2.47;1.50;;;23.10;54.40;;;;;;5037357;28;20055;-64
2022/11/11 07:18:02;;;;;;;2.90;1.60;;;23.20;54.40;;;;;;5038438;28;20095;-64
2022/11/11 07:20:29;;;;;;;2.33;1.48;;;23.30;54.40;;;;;;5034538;28;20029;-63
2022/11/11 07:22:54;;;;;;;2.75;1.60;;;23.30;54.20;;;;;;5032282;28;20026;-64
2022/11/11 07:25:20;;;;;;;2.80;1.70;;;23.30;54.00;;;;;;5030867;28;20024;-64
2022/11/11 07:27:46;;;;;;;2.72;1.50;;;23.30;54.00;;;;;;5036136;28;20116;-64
2022/11/11 07:30:12;;;;;;;2.45;1.70;;;23.30;54.00;;;;;;5034202;28;20376;-64
2022/11/11 07:32:47;;;;;;;1.90;1.27;;;23.20;54.00;;;;;;5028961;28;20083;-64
2022/11/11 07:35:13;;;;;;;2.50;1.30;;;23.20;54.00;;;;;;5034472;28;20348;-64
2022/11/11 07:37:40;;;;;;;2.13;1.45;;;23.20;54.00;;;;;;5034579;28;20481;-64
2022/11/11 07:40:06;;;;;;;2.45;1.40;;;23.20;54.00;;;;;;5036877;28;20158;-64
2022/11/11 07:42:36;;;;;;;2.00;1.35;;;23.20;54.30;;;;;;5032355;28;20056;-64
2022/11/11 07:45:01;;;;;;;;;;;23.30;54.70;;;;;;5033349;28;20565;-63
2022/11/11 07:47:27;;;;;;;1.58;1.10;;;23.40;54.50;;;;;;5036793;28;19905;-63
2022/11/11 07:49:52;;;;;;;1.90;1.13;;;23.40;54.80;;;;;;5040242;28;20112;-64
2022/11/11 07:52:18;;;;;;;1.17;1.00;;;23.30;54.80;;;;;;5033212;28;20029;-64
2022/11/11 07:54:44;;;;;;;1.80;1.20;;;23.30;55.00;;;;;;5041326;28;20037;-64
2022/11/11 07:57:09;;;;;;;1.75;1.10;;;23.30;55.10;;;;;;5038213;28;20033;-65
2022/11/11 07:59:35;;;;;;;2.17;1.17;;;23.30;55.20;;;;;;5033973;28;20034;-63
2022/11/11 08:02:00;;;;;;;1.30;1.00;;;23.40;55.30;;;;;;5038345;28;20112;-64
2022/11/11 08:04:26;;;;;;;1.33;0.93;;;23.40;56.20;;;;;;5034885;28;20563;-63
2022/11/11 08:06:51;;;;;;;1.60;1.00;;;23.50;55.70;;;;;;5036980;28;20030;-66
2022/11/11 08:09:17;;;;;;;1.77;0.95;;;23.60;55.50;;;;;;5034228;28;20033;-65
2022/11/11 08:14:27;;;;;;;1.48;1.10;;;23.60;55.50;;;;;;5040172;28;20127;-64
2022/11/11 08:16:52;;;;;;;1.83;1.00;;;23.60;55.80;;;;;;5046330;28;20391;-64
2022/11/11 08:19:18;;;;;;;1.50;1.10;;;23.60;56.20;;;;;;5042202;28;20496;-63
2022/11/11 08:21:44;;;;;;;1.08;0.90;;;23.70;57.00;;;;;;5032760;28;20107;-64
2022/11/11 08:24:10;;;;;;;1.60;1.10;;;23.80;56.70;;;;;;5042409;28;20333;-66
2022/11/11 08:26:36;;;;;;;1.30;1.00;;;23.90;56.90;;;;;;5035911;28;20025;-64
2022/11/11 08:29:02;;;;;;;1.40;1.10;;;23.90;56.80;;;;;;5032918;28;20128;-64
2022/11/11 08:31:27;;;;;;;1.45;1.00;;;23.90;56.80;;;;;;5038746;28;20061;-64
2022/11/11 08:33:53;;;;;;;1.75;1.15;;;23.90;57.00;;;;;;5037908;28;20068;-64
2022/11/11 08:36:19;;;;;;;1.50;1.08;;;23.90;57.20;;;;;;5037950;28;20028;-64
2022/11/11 08:38:44;;;;;;;1.23;1.00;;;23.90;57.40;;;;;;5036857;28;20396;-64
2022/11/11 08:41:10;;;;;;;2.55;1.00;;;23.90;57.30;;;;;;5040115;28;20022;-64
2022/11/11 08:43:36;;;;;;;1.35;0.93;;;23.90;57.20;;;;;;5034250;28;20033;-64
2022/11/11 08:46:03;;;;;;;2.00;1.00;;;23.90;57.80;;;;;;5033967;28;20092;-65
2022/11/11 08:48:32;;;;;;;1.33;0.90;;;24.00;58.10;;;;;;5036337;28;20025;-65
2022/11/11 08:50:58;;;;;;;2.25;0.90;;;24.00;57.90;;;;;;5029835;28;20057;-64
2022/11/11 08:53:25;;;;;;;1.60;0.90;;;24.00;57.60;;;;;;5045368;28;20504;-64
2022/11/11 08:55:50;;;;;;;1.50;1.00;;;24.00;58.40;;;;;;5037233;28;20473;-64
2022/11/11 08:58:16;;;;;;;1.50;1.00;;;24.10;58.40;;;;;;5037577;28;20028;-65
2022/11/11 09:00:42;;;;;;;1.33;0.82;;;24.10;57.70;;;;;;5032925;28;20676;-64
2022/11/11 09:03:10;;;;;;;2.33;1.08;;;24.10;58.30;;;;;;5033118;28;20076;-65
2022/11/11 09:05:39;;;;;;;1.58;1.10;;;24.10;58.10;;;;;;5030990;28;20376;-64
2022/11/11 09:08:06;;;;;;;2.15;1.00;;;24.10;57.70;;;;;;5032831;28;20021;-64
2022/11/11 09:10:33;;;;;;;1.10;0.90;;;24.10;57.80;;;;;;5037297;28;20605;-64
2022/11/11 09:12:59;;;;;;;1.52;1.08;;;24.10;57.60;;;;;;5038472;28;20026;-64
2022/11/11 09:15:26;;;;;;;1.38;0.90;;;24.00;57.30;;;;;;5038272;28;20024;-64
2022/11/11 09:17:52;;;;;;;1.25;0.93;;;24.00;57.80;;;;;;5040183;28;20469;-62
2022/11/11 09:20:18;;;;;;;1.23;0.90;;;24.00;57.20;;;;;;5034648;28;20033;-64
2022/11/11 09:22:48;;;;;;;1.13;0.80;;;24.00;57.20;;;;;;5037291;28;20101;-66
2022/11/11 09:25:14;;;;;;;0.98;0.85;;;24.00;57.10;;;;;;5035328;28;20139;-64
2022/11/11 09:27:41;;;;;;;1.52;1.05;;;24.00;57.00;;;;;;5033752;28;20420;-67
2022/11/11 09:30:07;;;;;;;1.63;1.10;;;24.00;57.00;;;;;;5035333;28;20107;-64
2022/11/11 09:32:33;;;;;;;1.20;0.90;;;24.00;57.00;;;;;;5035878;28;20025;-64
2022/11/11 09:34:59;;;;;;;1.85;1.00;;;24.00;57.00;;;;;;5033116;28;20092;-65
2022/11/11 09:37:26;;;;;;;1.33;0.88;;;24.00;57.00;;;;;;5037744;28;20025;-64
2022/11/11 09:39:51;;;;;;;1.75;1.05;;;24.00;57.60;;;;;;5032343;28;20045;-64
2022/11/11 09:42:43;;;;;;;1.08;0.80;;;24.00;57.10;;;;;;5027639;28;20017;-65
2022/11/11 09:45:22;;;;;;;1.55;0.95;;;24.00;57.00;;;;;;5028457;28;20033;-64
2022/11/11 09:47:59;;;;;;;1.00;0.80;;;24.10;57.00;;;;;;5035753;28;20053;-64
2022/11/11 09:50:27;;;;;;;1.40;1.00;;;24.00;57.00;;;;;;5039940;28;20048;-63
2022/11/11 09:53:18;;;;;;;1.48;1.00;;;24.10;57.10;;;;;;5037153;28;20032;-65
2022/11/11 09:55:59;;;;;;;1.30;1.00;;;24.10;57.10;;;;;;5034251;28;20029;-64
2022/11/11 09:58:28;;;;;;;0.95;0.82;;;24.10;57.10;;;;;;5038607;28;20031;-64
2022/11/11 10:01:04;;;;;;;1.00;0.80;;;24.10;57.10;;;;;;5037186;28;20113;-65
2022/11/11 10:03:37;;;;;;;1.20;0.90;;;24.10;57.10;;;;;;5038415;28;20120;-64
2022/11/11 10:06:12;;;;;;;1.45;0.90;;;24.10;57.10;;;;;;5038986;28;20021;-64
2022/11/11 10:09:02;;;;;;;0.80;0.75;;;24.10;57.10;;;;;;5036950;28;20034;-63
2022/11/11 10:12:12;;;;;;;1.35;1.00;;;24.10;57.20;;;;;;5028151;28;20022;-63
2022/11/11 10:14:41;;;;;;;1.00;0.77;;;24.20;57.80;;;;;;4948415;29;20574;-64
2022/11/11 10:17:27;;;;;;;1.30;0.90;;;24.20;57.20;;;;;;5016796;28;20038;-63
2022/11/11 10:20:01;;;;;;;1.08;0.80;;;24.20;57.10;;;;;;5034074;28;20028;-64
2022/11/11 10:22:33;;;;;;;1.42;0.90;;;24.20;57.30;;;;;;5034817;28;20477;-63
2022/11/11 10:25:11;;;;;;;1.83;1.00;;;24.20;57.20;;;;;;5031815;28;20059;-64
2022/11/11 10:27:42;;;;;;;1.40;0.80;;;24.20;57.00;;;;;;5041235;28;20028;-63
2022/11/11 10:30:25;;;;;;;0.93;0.80;;;24.20;57.20;;;;;;5041514;28;20032;-64
2022/11/11 10:32:59;;;;;;;1.15;0.88;;;24.20;57.20;;;;;;5032573;28;20022;-64
2022/11/11 10:35:27;;;;;;;0.93;0.70;;;24.20;57.20;;;;;;5034484;28;20033;-63
2022/11/11 10:38:29;;;;;;;1.43;1.00;;;24.20;57.30;;;;;;5039463;28;20021;-62
2022/11/11 10:41:02;;;;;;;1.17;0.90;;;24.20;57.20;;;;;;5037298;28;20032;-63
2022/11/11 10:43:28;;;;;;;0.98;0.80;;;24.30;57.20;;;;;;5032095;28;20029;-64
2022/11/11 10:46:03;;;;;;;1.13;0.80;;;24.30;57.30;;;;;;5026189;28;20452;-63
2022/11/11 10:48:34;;;;;;;1.00;0.75;;;24.20;57.20;;;;;;5024862;28;20026;-63
2022/11/11 10:51:02;;;;;;;0.93;0.75;;;24.20;57.20;;;;;;5026659;28;20032;-64
2022/11/11 10:53:38;;;;;;;1.20;0.90;;;24.30;57.20;;;;;;5037105;28;20385;-63
2022/11/11 10:56:10;;;;;;;1.10;0.70;;;24.30;57.30;;;;;;5041239;28;20029;-63
2022/11/11 10:58:47;;;;;;;1.80;1.20;;;24.30;57.40;;;;;;5032303;28;20028;-63
2022/11/11 11:01:20;;;;;;;2.13;1.25;;;24.30;55.10;;;;;;5035160;28;20175;-63
2022/11/11 11:03:54;;;;;;;2.03;1.30;;;24.30;53.70;;;;;;5033065;28;20461;-63
2022/11/11 11:06:24;;;;;;;2.38;1.15;;;24.30;53.70;;;;;;5043080;28;20376;-63
2022/11/11 11:09:08;;;;;;;2.05;1.20;;;24.20;53.90;;;;;;5036605;28;20083;-63
2022/11/11 11:12:06;;;;;;;1.63;1.00;;;24.20;54.10;;;;;;5026504;28;20025;-63
2022/11/11 11:14:38;;;;;;;1.83;1.30;;;24.20;54.20;;;;;;5036934;28;20084;-64
2022/11/11 11:17:13;;;;;;;3.20;1.55;;;24.20;54.40;;;;;;5036947;28;20022;-64
2022/11/11 11:19:39;;;;;;;3.05;1.90;;;24.20;54.30;;;;;;5034078;28;20109;-64
2022/11/11 11:22:04;;;;;;;4.03;2.30;;;24.10;54.30;;;;;;5032086;28;20029;-63
2022/11/11 11:24:36;;;;;;;3.85;2.38;;;24.10;54.30;;;;;;5029319;28;20029;-63
2022/11/11 11:27:08;;;;;;;5.25;3.05;;;24.10;54.40;;;;;;5029665;28;20079;-64
2022/11/11 11:29:38;;;;;;;5.30;3.40;;;24.10;54.40;;;;;;5034477;28;20119;-63
2022/11/11 11:32:11;;;;;;;5.53;3.38;;;24.10;54.40;;;;;;5038963;28;20410;-63
2022/11/11 11:34:43;;;;;;;6.25;4.03;;;24.10;54.20;;;;;;5035763;28;20028;-62
2022/11/11 11:37:08;;;;;;;6.88;4.10;;;24.10;54.30;;;;;;5034890;28;20048;-63
2022/11/11 11:39:37;;;;;;;6.82;4.22;;;24.10;54.40;;;;;;5036817;28;20476;-64
2022/11/11 11:42:03;;;;;;;6.45;4.35;;;24.10;54.40;;;;;;5039101;28;20039;-63
2022/11/11 11:44:36;;;;;;;8.38;4.50;;;24.10;54.40;;;;;;5045451;28;20096;-64
2022/11/11 11:47:33;;;;;;;7.75;4.43;;;24.10;54.40;;;;;;5024971;28;20034;-63
2022/11/11 11:50:04;;;;;;;7.47;4.03;;;24.10;54.10;;;;;;5039453;28;20025;-63
2022/11/11 11:52:46;;;;;;;8.25;4.70;;;24.10;54.30;;;;;;5037869;28;20081;-62
2022/11/11 11:55:21;;;;;;;7.68;4.32;;;24.10;54.30;;;;;;5038292;28;21081;-63
2022/11/11 11:58:01;;;;;;;7.65;4.50;;;24.10;54.30;;;;;;5032224;28;20026;-63
2022/11/11 12:00:37;;;;;;;9.60;4.90;;;24.10;54.20;;;;;;5031774;28;20033;-63
2022/11/11 12:03:21;;;;;;;8.65;4.88;;;24.10;54.40;;;;;;5032027;28;20077;-63
2022/11/11 12:05:59;;;;;;;7.75;4.50;;;24.10;54.30;;;;;;5037992;28;20499;-64
2022/11/11 12:08:42;;;;;;;7.72;5.00;;;24.10;54.30;;;;;;5038053;28;20017;-63
2022/11/11 12:11:28;;;;;;;6.65;4.28;;;24.10;54.30;;;;;;5039180;28;20468;-63
2022/11/11 12:14:03;;;;;;;7.45;4.60;;;24.10;54.20;;;;;;5032672;28;20079;-63
2022/11/11 12:16:51;;;;;;;9.15;5.38;;;24.10;54.30;;;;;;5033123;28;20025;-63
2022/11/11 12:19:23;;;;;;;10.98;6.05;;;24.10;54.30;;;;;;5034851;28;20029;-63
2022/11/11 12:21:55;;;;;;;13.38;7.75;;;24.10;53.40;;;;;;5041707;28;20116;-62
2022/11/11 12:24:41;;;;;;;17.90;11.25;;;24.10;53.00;;;;;;5034014;28;20484;-63
2022/11/11 12:27:16;;;;;;;19.77;11.73;;;24.10;52.70;;;;;;5030638;28;20056;-63
2022/11/11 12:29:53;;;;;;;17.67;10.38;;;24.10;52.70;;;;;;5027000;28;20432;-62
2022/11/11 12:32:48;;;;;;;21.65;12.98;;;24.00;52.80;;;;;;5034126;28;20037;-62
2022/11/11 12:35:23;;;;;;;29.58;17.42;;;24.00;53.00;;;;;;5034053;28;20457;-62
2022/11/11 12:38:03;;;;;;;28.00;18.42;;;23.90;53.00;;;;;;5037332;28;20017;-63
2022/11/11 12:40:53;;;;;;;28.30;18.60;;;23.90;53.00;;;;;;5041368;28;20103;-62
2022/11/11 12:43:35;;;;;;;32.45;20.33;;;23.90;53.10;;;;;;5034319;28;20090;-63
2022/11/11 12:46:20;;;;;;;30.77;20.55;;;23.80;53.20;;;;;;5035367;28;20105;-65
2022/11/11 12:49:12;;;;;;;31.00;20.60;;;23.70;53.20;;;;;;5041972;28;20024;-62
2022/11/11 12:52:03;;;;;;;32.72;21.02;;;23.70;53.30;;;;;;5009142;28;20037;-63
2022/11/11 12:55:00;;;;;;;28.10;18.10;;;23.70;53.40;;;;;;5036326;28;20024;-63
2022/11/11 12:57:40;;;;;;;32.45;20.65;;;23.60;53.40;;;;;;5039460;28;20028;-64
2022/11/11 13:00:09;;;;;;;33.60;21.58;;;23.60;53.40;;;;;;5037702;28;20040;-64
2022/11/11 13:03:04;;;;;;;33.17;20.77;;;23.60;53.50;;;;;;5034059;28;20096;-63
2022/11/11 13:05:35;;;;;;;29.38;19.85;;;23.50;53.50;;;;;;5030802;28;20030;-63
2022/11/11 13:08:03;;;;;;;28.35;18.77;;;23.50;53.60;;;;;;5023621;28;20040;-63
2022/11/11 13:10:39;;;;;;;30.70;20.05;;;23.40;53.70;;;;;;5026776;28;20033;-63
2022/11/11 13:13:23;;;;;;;30.30;19.98;;;23.40;53.70;;;;;;5031247;28;20025;-62
2022/11/11 13:15:49;;;;;;;27.98;19.80;;;23.40;53.80;;;;;;5019712;28;20022;-64
2022/11/11 13:18:35;;;;;;;26.88;18.73;;;23.40;53.90;;;;;;5028155;28;20499;-62
2022/11/11 13:21:05;;;;;;;27.80;17.17;;;23.40;54.00;;;;;;5029762;28;20116;-63
2022/11/11 13:23:31;;;;;;;27.35;16.98;;;23.30;54.10;;;;;;5033478;28;20056;-63
2022/11/11 13:26:01;;;;;;;23.35;16.77;;;23.30;54.10;;;;;;5040919;28;20037;-64
2022/11/11 13:28:33;;;;;;;28.75;18.38;;;23.30;54.20;;;;;;5041869;28;20020;-64
2022/11/11 13:31:30;;;;;;;28.13;18.55;;;23.30;54.80;;;;;;5033122;28;20112;-63
2022/11/11 13:34:01;;;;;;;29.67;18.73;;;23.30;54.80;;;;;;5032688;28;20065;-63
2022/11/11 13:36:28;;;;;;;27.67;19.50;;;23.30;54.30;;;;;;5035656;28;20567;-63
2022/11/11 13:39:03;;;;;;;28.15;18.90;;;23.30;54.20;;;;;;5037778;28;20025;-63
2022/11/11 13:41:32;;;;;;;26.75;18.13;;;23.30;54.20;;;;;;5033193;28;20026;-65
2022/11/11 13:44:00;;;;;;;;;;;23.30;54.20;;;;;;5027046;28;20030;-63
2022/11/11 13:46:37;;;;;;;27.10;18.20;;;23.30;54.10;;;;;;5026961;28;19905;-63
2022/11/11 13:49:09;;;;;;;28.98;19.73;;;23.40;54.20;;;;;;5034502;28;20033;-63
2022/11/11 13:51:38;;;;;;;27.48;18.92;;;23.40;54.20;;;;;;5038671;28;20108;-63
2022/11/11 13:54:23;;;;;;;29.10;18.60;;;23.40;54.20;;;;;;5032480;28;20030;-63
2022/11/11 13:56:50;;;;;;;29.25;19.42;;;23.30;54.10;;;;;;5030729;28;20022;-63
2022/11/11 13:59:24;;;;;;;26.83;18.20;;;23.30;54.10;;;;;;5028316;28;20046;-63
2022/11/11 14:02:19;;;;;;;28.40;19.23;;;23.30;54.20;;;;;;5033160;28;20033;-63
2022/11/11 14:05:07;;;;;;;27.33;18.95;;;23.30;54.40;;;;;;5034103;28;20026;-63
2022/11/11 14:07:59;;;;;;;27.40;18.65;;;23.30;54.20;;;;;;5033369;28;20093;-63
2022/11/11 14:10:24;;;;;;;27.05;18.20;;;23.30;54.30;;;;;;5032057;28;20088;-62
2022/11/11 14:12:52;;;;;;;28.00;19.10;;;23.30;54.30;;;;;;5039136;28;20045;-64